sensor_id;sensor_type;location;lat;lon;timestamp;pressure;altitude;pressure_sealevel;temperature;humidity
57616;BME280;43816;52.054;-9.494;2023-05-03T00:00:03;101599.06;;;24.87;33.66
57616;BME280;43816;52.054;-9.494;2023-05-03T00:00:14;101594.59;;;24.86;34.09
57616;BME280;43816;52.054;-9.494;2023-05-03T00:00:24;101598.00;;;24.88;33.85
57616;BME280;43816;52.054;-9.494;2023-05-03T00:00:35;101600.75;;;24.88;33.71
57616;BME280;43816;52.054;-9.494;2023-05-03T00:00:45;101598.88;;;24.88;33.82
57616;BME280;43816;52.054;-9.494;2023-05-03T00:00:55;101600.13;;;24.86;33.87
57616;BME280;43816;52.054;-9.494;2023-05-03T00:01:09;101593.56;;;24.87;33.79
57616;BME280;43816;52.054;-9.494;2023-05-03T00:01:19;101596.31;;;24.87;33.79
57616;BME280;43816;52.054;-9.494;2023-05-03T00:01:29;101592.91;;;24.85;33.56
57616;BME280;43816;52.054;-9.494;2023-05-03T00:01:40;101595.00;;;24.83;33.83
57616;BME280;43816;52.054;-9.494;2023-05-03T00:01:50;101600.56;;;24.89;33.79
57616;BME280;43816;52.054;-9.494;2023-05-03T00:02:00;101595.44;;;24.86;33.94
57616;BME280;43816;52.054;-9.494;2023-05-03T00:02:10;101594.78;;;24.84;33.84
57616;BME280;43816;52.054;-9.494;2023-05-03T00:02:21;101598.00;;;24.88;34.08
57616;BME280;43816;52.054;-9.494;2023-05-03T00:02:31;101596.72;;;24.84;33.83
57616;BME280;43816;52.054;-9.494;2023-05-03T00:02:41;101595.00;;;24.83;33.79
57616;BME280;43816;52.054;-9.494;2023-05-03T00:02:52;101587.41;;;24.85;33.60
57616;BME280;43816;52.054;-9.494;2023-05-03T00:03:02;101595.88;;;24.83;33.81
57616;BME280;43816;52.054;-9.494;2023-05-03T00:03:13;101599.28;;;24.85;33.90
57616;BME280;43816;52.054;-9.494;2023-05-03T00:03:23;101591.19;;;24.84;33.99
57616;BME280;43816;52.054;-9.494;2023-05-03T00:03:33;101593.75;;;24.85;33.78
57616;BME280;43816;52.054;-9.494;2023-05-03T00:03:44;101596.31;;;24.87;33.57
57616;BME280;43816;52.054;-9.494;2023-05-03T00:03:54;101596.50;;;24.85;33.75
57616;BME280;43816;52.054;-9.494;2023-05-03T00:04:04;101591.19;;;24.84;33.91
57616;BME280;43816;52.054;-9.494;2023-05-03T00:04:15;101591.19;;;24.84;33.82
57616;BME280;43816;52.054;-9.494;2023-05-03T00:04:25;101588.63;;;24.82;34.12
57616;BME280;43816;52.054;-9.494;2023-05-03T00:04:36;101592.44;;;24.81;33.88
57616;BME280;43816;52.054;-9.494;2023-05-03T00:04:46;101585.22;;;24.80;33.88
57616;BME280;43816;52.054;-9.494;2023-05-03T00:04:57;101591.59;;;24.81;33.81
57616;BME280;43816;52.054;-9.494;2023-05-03T00:05:07;101592.44;;;24.81;33.74
57616;BME280;43816;52.054;-9.494;2023-05-03T00:05:18;101595.00;;;24.83;33.89
57616;BME280;43816;52.054;-9.494;2023-05-03T00:05:29;101587.78;;;24.82;34.14
57616;BME280;43816;52.054;-9.494;2023-05-03T00:05:39;101590.75;;;24.80;33.76
57616;BME280;43816;52.054;-9.494;2023-05-03T00:05:49;101583.50;;;24.79;34.11
57616;BME280;43816;52.054;-9.494;2023-05-03T00:06:13;101591.19;;;24.84;33.94
57616;BME280;43816;52.054;-9.494;2023-05-03T00:06:23;101583.13;;;24.82;33.91
57616;BME280;43816;52.054;-9.494;2023-05-03T00:06:33;101585.69;;;24.84;33.84
57616;BME280;43816;52.054;-9.494;2023-05-03T00:06:44;101582.94;;;24.84;34.09
57616;BME280;43816;52.054;-9.494;2023-05-03T00:06:54;101586.06;;;24.81;33.86
57616;BME280;43816;52.054;-9.494;2023-05-03T00:07:04;101578.66;;;24.81;34.07
57616;BME280;43816;52.054;-9.494;2023-05-03T00:07:14;101594.59;;;24.86;33.79
57616;BME280;43816;52.054;-9.494;2023-05-03T00:07:25;101589.47;;;24.83;33.66
57616;BME280;43816;52.054;-9.494;2023-05-03T00:07:35;101587.78;;;24.82;33.82
57616;BME280;43816;52.054;-9.494;2023-05-03T00:07:45;101585.69;;;24.84;33.97
57616;BME280;43816;52.054;-9.494;2023-05-03T00:07:56;101584.34;;;24.80;34.05
57616;BME280;43816;52.054;-9.494;2023-05-03T00:08:09;101585.22;;;24.80;33.82
57616;BME280;43816;52.054;-9.494;2023-05-03T00:08:19;101588.25;;;24.85;33.80
57616;BME280;43816;52.054;-9.494;2023-05-03T00:08:29;101583.97;;;24.83;33.80
57616;BME280;43816;52.054;-9.494;2023-05-03T00:08:40;101588.44;;;24.84;33.82
57616;BME280;43816;52.054;-9.494;2023-05-03T00:08:50;101586.06;;;24.81;33.78
57616;BME280;43816;52.054;-9.494;2023-05-03T00:09:01;101582.94;;;24.84;33.73
57616;BME280;43816;52.054;-9.494;2023-05-03T00:09:11;101584.34;;;24.80;34.00
57616;BME280;43816;52.054;-9.494;2023-05-03T00:09:21;101592.03;;;24.84;33.83
57616;BME280;43816;52.054;-9.494;2023-05-03T00:09:34;101582.66;;;24.79;33.70
57616;BME280;43816;52.054;-9.494;2023-05-03T00:09:45;101582.28;;;24.82;33.95
57616;BME280;43816;52.054;-9.494;2023-05-03T00:09:55;101576.97;;;24.80;33.88
57616;BME280;43816;52.054;-9.494;2023-05-03T00:10:06;101583.31;;;24.81;33.86
57616;BME280;43816;52.054;-9.494;2023-05-03T00:10:16;101580.94;;;24.78;34.01
57616;BME280;43816;52.054;-9.494;2023-05-03T00:10:27;101581.59;;;24.80;33.99
57616;BME280;43816;52.054;-9.494;2023-05-03T00:10:37;101575.81;;;24.74;33.79
57616;BME280;43816;52.054;-9.494;2023-05-03T00:10:47;101586.06;;;24.81;34.00
57616;BME280;43816;52.054;-9.494;2023-05-03T00:11:00;101573.75;;;24.77;33.91
57616;BME280;43816;52.054;-9.494;2023-05-03T00:11:13;101573.06;;;24.74;33.88
57616;BME280;43816;52.054;-9.494;2023-05-03T00:11:24;101578.66;;;24.81;33.88
57616;BME280;43816;52.054;-9.494;2023-05-03T00:11:34;101579.72;;;24.80;33.85
57616;BME280;43816;52.054;-9.494;2023-05-03T00:11:44;101577.16;;;24.79;33.83
57616;BME280;43816;52.054;-9.494;2023-05-03T00:11:54;101568.25;;;24.77;33.84
57616;BME280;43816;52.054;-9.494;2023-05-03T00:12:05;101586.06;;;24.81;33.96
57616;BME280;43816;52.054;-9.494;2023-05-03T00:12:15;101563.13;;;24.73;33.85
57616;BME280;43816;52.054;-9.494;2023-05-03T00:12:26;101578.66;;;24.81;34.03
57616;BME280;43816;52.054;-9.494;2023-05-03T00:12:39;101578.84;;;24.80;33.88
57616;BME280;43816;52.054;-9.494;2023-05-03T00:12:50;101582.47;;;24.80;33.77
57616;BME280;43816;52.054;-9.494;2023-05-03T00:13:00;101573.06;;;24.74;34.02
57616;BME280;43816;52.054;-9.494;2023-05-03T00:13:10;101582.47;;;24.80;33.71
57616;BME280;43816;52.054;-9.494;2023-05-03T00:13:21;101579.06;;;24.78;33.85
57616;BME280;43816;52.054;-9.494;2023-05-03T00:13:31;101571.84;;;24.77;33.98
57616;BME280;43816;52.054;-9.494;2023-05-03T00:13:41;101566.91;;;24.72;33.82
57616;BME280;43816;52.054;-9.494;2023-05-03T00:13:52;101569.94;;;24.78;33.83
57616;BME280;43816;52.054;-9.494;2023-05-03T00:14:02;101559.91;;;24.70;34.11
57616;BME280;43816;52.054;-9.494;2023-05-03T00:14:12;101580.94;;;24.78;34.10
57616;BME280;43816;52.054;-9.494;2023-05-03T00:14:23;101566.91;;;24.72;33.83
57616;BME280;43816;52.054;-9.494;2023-05-03T00:14:33;101574.41;;;24.79;34.06
57616;BME280;43816;52.054;-9.494;2023-05-03T00:14:44;101549.88;;;24.62;33.83
57616;BME280;43816;52.054;-9.494;2023-05-03T00:14:55;101563.69;;;24.69;34.14
57616;BME280;43816;52.054;-9.494;2023-05-03T00:15:05;101579.25;;;24.77;33.74
57616;BME280;43816;52.054;-9.494;2023-05-03T00:15:16;101571.00;;;24.77;33.95
57616;BME280;43816;52.054;-9.494;2023-05-03T00:15:27;101573.75;;;24.77;34.17
57616;BME280;43816;52.054;-9.494;2023-05-03T00:15:37;101568.44;;;24.75;34.09
57616;BME280;43816;52.054;-9.494;2023-05-03T00:15:47;101575.81;;;24.74;33.92
57616;BME280;43816;52.054;-9.494;2023-05-03T00:15:58;101575.44;;;24.78;34.02
57616;BME280;43816;52.054;-9.494;2023-05-03T00:16:08;101579.25;;;24.77;33.92
57616;BME280;43816;52.054;-9.494;2023-05-03T00:16:18;101580.09;;;24.77;33.93
57616;BME280;43816;52.054;-9.494;2023-05-03T00:16:28;101584.78;;;24.77;34.14
57616;BME280;43816;52.054;-9.494;2023-05-03T00:16:39;101565.88;;;24.73;33.93
57616;BME280;43816;52.054;-9.494;2023-05-03T00:16:49;101566.91;;;24.72;34.02
57616;BME280;43816;52.054;-9.494;2023-05-03T00:16:59;101573.75;;;24.77;34.16
57616;BME280;43816;52.054;-9.494;2023-05-03T00:17:10;101565.69;;;24.75;33.99
57616;BME280;43816;52.054;-9.494;2023-05-03T00:17:20;101579.25;;;24.77;34.28
57616;BME280;43816;52.054;-9.494;2023-05-03T00:17:30;101560.38;;;24.73;34.07
57616;BME280;43816;52.054;-9.494;2023-05-03T00:17:41;101558.19;;;24.69;33.99
57616;BME280;43816;52.054;-9.494;2023-05-03T00:17:51;101570.50;;;24.73;34.10
57616;BME280;43816;52.054;-9.494;2023-05-03T00:18:01;101573.94;;;24.75;34.11
57616;BME280;43816;52.054;-9.494;2023-05-03T00:18:12;101557.53;;;24.67;34.13
57616;BME280;43816;52.054;-9.494;2023-05-03T00:18:22;101557.53;;;24.67;34.45
57616;BME280;43816;52.054;-9.494;2023-05-03T00:18:32;101568.81;;;24.72;34.17
57616;BME280;43816;52.054;-9.494;2023-05-03T00:18:42;101574.13;;;24.73;34.31
57616;BME280;43816;52.054;-9.494;2023-05-03T00:18:53;101562.19;;;24.66;33.85
57616;BME280;43816;52.054;-9.494;2023-05-03T00:19:03;101573.75;;;24.77;34.15
57616;BME280;43816;52.054;-9.494;2023-05-03T00:19:13;101543.31;;;24.63;34.12
57616;BME280;43816;52.054;-9.494;2023-05-03T00:19:24;101565.69;;;24.75;34.23
57616;BME280;43816;52.054;-9.494;2023-05-03T00:19:34;101558.00;;;24.70;34.14
57616;BME280;43816;52.054;-9.494;2023-05-03T00:19:44;101559.50;;;24.73;33.93
57616;BME280;43816;52.054;-9.494;2023-05-03T00:19:54;101565.22;;;24.71;34.16
57616;BME280;43816;52.054;-9.494;2023-05-03T00:20:05;101560.56;;;24.72;34.35
57616;BME280;43816;52.054;-9.494;2023-05-03T00:20:16;101568.63;;;24.73;34.22
57616;BME280;43816;52.054;-9.494;2023-05-03T00:20:26;101552.69;;;24.69;33.96
57616;BME280;43816;52.054;-9.494;2023-05-03T00:20:36;101556.28;;;24.69;34.11
57616;BME280;43816;52.054;-9.494;2023-05-03T00:20:47;101561.03;;;24.75;34.44
57616;BME280;43816;52.054;-9.494;2023-05-03T00:20:57;101569.03;;;24.70;34.17
57616;BME280;43816;52.054;-9.494;2023-05-03T00:21:08;101531.38;;;24.56;34.16
57616;BME280;43816;52.054;-9.494;2023-05-03T00:21:18;101543.13;;;24.65;34.27
57616;BME280;43816;52.054;-9.494;2023-05-03T00:21:28;101556.66;;;24.66;34.17
57616;BME280;43816;52.054;-9.494;2023-05-03T00:21:39;101567.31;;;24.69;34.02
57616;BME280;43816;52.054;-9.494;2023-05-03T00:21:49;101557.34;;;24.68;33.89
57616;BME280;43816;52.054;-9.494;2023-05-03T00:21:59;101562.88;;;24.68;34.03
57616;BME280;43816;52.054;-9.494;2023-05-03T00:22:09;101563.50;;;24.70;33.98
57616;BME280;43816;52.054;-9.494;2023-05-03T00:22:20;101555.00;;;24.65;34.16
57616;BME280;43816;52.054;-9.494;2023-05-03T00:22:30;101556.28;;;24.69;33.79
57616;BME280;43816;52.054;-9.494;2023-05-03T00:22:41;101565.63;;;24.68;34.16
57616;BME280;43816;52.054;-9.494;2023-05-03T00:22:51;101560.31;;;24.67;33.96
57616;BME280;43816;52.054;-9.494;2023-05-03T00:23:01;101571.59;;;24.72;33.95
57616;BME280;43816;52.054;-9.494;2023-05-03T00:23:11;101562.25;;;24.73;34.04
57616;BME280;43816;52.054;-9.494;2023-05-03T00:23:22;101557.53;;;24.67;33.92
57616;BME280;43816;52.054;-9.494;2023-05-03T00:23:32;101570.72;;;24.71;34.16
57616;BME280;43816;52.054;-9.494;2023-05-03T00:23:42;101562.66;;;24.70;33.95
57616;BME280;43816;52.054;-9.494;2023-05-03T00:23:53;101556.66;;;24.66;34.13
57616;BME280;43816;52.054;-9.494;2023-05-03T00:24:03;101564.75;;;24.68;34.10
57616;BME280;43816;52.054;-9.494;2023-05-03T00:24:14;101556.28;;;24.69;34.10
57616;BME280;43816;52.054;-9.494;2023-05-03T00:24:24;101562.00;;;24.68;34.04
57616;BME280;43816;52.054;-9.494;2023-05-03T00:24:34;101555.00;;;24.65;33.95
57616;BME280;43816;52.054;-9.494;2023-05-03T00:24:44;101558.38;;;24.67;34.00
57616;BME280;43816;52.054;-9.494;2023-05-03T00:24:55;101571.59;;;24.72;34.34
57616;BME280;43816;52.054;-9.494;2023-05-03T00:25:07;101563.91;;;24.67;33.99
57616;BME280;43816;52.054;-9.494;2023-05-03T00:25:17;101562.19;;;24.66;34.19
57616;BME280;43816;52.054;-9.494;2023-05-03T00:25:28;101549.22;;;24.60;34.20
57616;BME280;43816;52.054;-9.494;2023-05-03T00:25:38;101570.72;;;24.71;34.34
57616;BME280;43816;52.054;-9.494;2023-05-03T00:25:52;101551.59;;;24.63;34.43
57616;BME280;43816;52.054;-9.494;2023-05-03T00:26:03;101558.38;;;24.67;34.27
57616;BME280;43816;52.054;-9.494;2023-05-03T00:26:13;101562.00;;;24.68;34.06
57616;BME280;43816;52.054;-9.494;2023-05-03T00:26:23;101570.72;;;24.71;34.04
57616;BME280;43816;52.054;-9.494;2023-05-03T00:26:34;101537.56;;;24.58;34.17
57616;BME280;43816;52.054;-9.494;2023-05-03T00:26:44;101539.13;;;24.52;34.17
57616;BME280;43816;52.054;-9.494;2023-05-03T00:26:54;101557.94;;;24.64;34.09
57616;BME280;43816;52.054;-9.494;2023-05-03T00:27:05;101542.38;;;24.56;34.18
57616;BME280;43816;52.054;-9.494;2023-05-03T00:27:16;101566.84;;;24.66;34.20
57616;BME280;43816;52.054;-9.494;2023-05-03T00:27:26;101563.06;;;24.67;33.99
57616;BME280;43816;52.054;-9.494;2023-05-03T00:27:36;101545.81;;;24.58;34.01
57616;BME280;43816;52.054;-9.494;2023-05-03T00:27:46;101557.09;;;24.63;34.12
57616;BME280;43816;52.054;-9.494;2023-05-03T00:27:57;101565.16;;;24.65;33.86
57616;BME280;43816;52.054;-9.494;2023-05-03T00:28:07;101565.16;;;24.65;34.18
57616;BME280;43816;52.054;-9.494;2023-05-03T00:28:17;101566.00;;;24.65;34.30
57616;BME280;43816;52.054;-9.494;2023-05-03T00:28:28;101561.34;;;24.66;34.21
57616;BME280;43816;52.054;-9.494;2023-05-03T00:28:38;101564.94;;;24.66;33.91
57616;BME280;43816;52.054;-9.494;2023-05-03T00:28:48;101548.94;;;24.55;34.29
57616;BME280;43816;52.054;-9.494;2023-05-03T00:28:58;101566.84;;;24.66;34.30
57616;BME280;43816;52.054;-9.494;2023-05-03T00:29:09;101555.84;;;24.66;34.19
57616;BME280;43816;52.054;-9.494;2023-05-03T00:29:19;101560.50;;;24.65;34.16
57616;BME280;43816;52.054;-9.494;2023-05-03T00:29:29;101557.09;;;24.63;34.29
57616;BME280;43816;52.054;-9.494;2023-05-03T00:29:40;101546.84;;;24.57;34.19
57616;BME280;43816;52.054;-9.494;2023-05-03T00:29:50;101551.97;;;24.60;34.37
57616;BME280;43816;52.054;-9.494;2023-05-03T00:30:01;101544.09;;;24.57;34.09
57616;BME280;43816;52.054;-9.494;2023-05-03T00:30:11;101559.84;;;24.63;34.09
57616;BME280;43816;52.054;-9.494;2023-05-03T00:30:24;101563.44;;;24.64;34.34
57616;BME280;43816;52.054;-9.494;2023-05-03T00:30:34;101559.84;;;24.63;34.13
57616;BME280;43816;52.054;-9.494;2023-05-03T00:30:44;101564.28;;;24.64;34.09
57616;BME280;43816;52.054;-9.494;2023-05-03T00:30:54;101560.41;;;24.59;34.26
57616;BME280;43816;52.054;-9.494;2023-05-03T00:31:09;101559.66;;;24.65;34.24
57616;BME280;43816;52.054;-9.494;2023-05-03T00:31:19;101564.28;;;24.64;34.41
57616;BME280;43816;52.054;-9.494;2023-05-03T00:31:29;101552.16;;;24.59;34.11
57616;BME280;43816;52.054;-9.494;2023-05-03T00:31:42;101558.78;;;24.64;34.24
57616;BME280;43816;52.054;-9.494;2023-05-03T00:31:52;101560.50;;;24.65;34.18
57616;BME280;43816;52.054;-9.494;2023-05-03T00:32:03;101552.81;;;24.61;34.43
57616;BME280;43816;52.054;-9.494;2023-05-03T00:32:13;101555.38;;;24.62;34.12
57616;BME280;43816;52.054;-9.494;2023-05-03T00:32:23;101555.38;;;24.62;34.23
57616;BME280;43816;52.054;-9.494;2023-05-03T00:32:34;101558.97;;;24.63;34.12
57616;BME280;43816;52.054;-9.494;2023-05-03T00:32:44;101559.16;;;24.61;34.22
57616;BME280;43816;52.054;-9.494;2023-05-03T00:32:54;101551.97;;;24.60;34.21
57616;BME280;43816;52.054;-9.494;2023-05-03T00:33:05;101554.34;;;24.63;34.24
57616;BME280;43816;52.054;-9.494;2023-05-03T00:33:15;101542.53;;;24.54;34.26
57616;BME280;43816;52.054;-9.494;2023-05-03T00:33:25;101543.44;;;24.55;34.21
57616;BME280;43816;52.054;-9.494;2023-05-03T00:33:36;101554.53;;;24.62;34.07
57616;BME280;43816;52.054;-9.494;2023-05-03T00:33:47;101558.13;;;24.62;34.12
57616;BME280;43816;52.054;-9.494;2023-05-03T00:33:57;101547.69;;;24.58;34.26
57616;BME280;43816;52.054;-9.494;2023-05-03T00:34:07;101546.00;;;24.56;34.35
57616;BME280;43816;52.054;-9.494;2023-05-03T00:34:18;101557.47;;;24.60;34.10
57616;BME280;43816;52.054;-9.494;2023-05-03T00:34:28;101560.88;;;24.62;34.04
57616;BME280;43816;52.054;-9.494;2023-05-03T00:34:38;101548.75;;;24.56;34.03
57616;BME280;43816;52.054;-9.494;2023-05-03T00:34:55;101550.06;;;24.61;34.10
57616;BME280;43816;52.054;-9.494;2023-05-03T00:35:06;101558.31;;;24.61;34.34
57616;BME280;43816;52.054;-9.494;2023-05-03T00:35:17;101551.97;;;24.60;34.26
57616;BME280;43816;52.054;-9.494;2023-05-03T00:35:27;101553.66;;;24.61;34.20
57616;BME280;43816;52.054;-9.494;2023-05-03T00:35:37;101550.25;;;24.59;34.34
57616;BME280;43816;52.054;-9.494;2023-05-03T00:35:47;101548.56;;;24.58;34.35
57616;BME280;43816;52.054;-9.494;2023-05-03T00:35:58;101567.03;;;24.64;34.15
57616;BME280;43816;52.054;-9.494;2023-05-03T00:36:12;101547.50;;;24.59;34.23
57616;BME280;43816;52.054;-9.494;2023-05-03T00:36:23;101546.84;;;24.57;34.32
57616;BME280;43816;52.054;-9.494;2023-05-03T00:36:33;101551.97;;;24.60;34.16
57616;BME280;43816;52.054;-9.494;2023-05-03T00:36:43;101552.81;;;24.61;34.28
57616;BME280;43816;52.054;-9.494;2023-05-03T00:36:53;101554.72;;;24.60;34.43
57616;BME280;43816;52.054;-9.494;2023-05-03T00:37:04;101546.84;;;24.57;34.28
57616;BME280;43816;52.054;-9.494;2023-05-03T00:37:14;101543.44;;;24.55;34.10
57616;BME280;43816;52.054;-9.494;2023-05-03T00:37:25;101548.56;;;24.58;34.34
57616;BME280;43816;52.054;-9.494;2023-05-03T00:37:36;101553.66;;;24.61;34.28
57616;BME280;43816;52.054;-9.494;2023-05-03T00:37:46;101542.53;;;24.54;34.02
57616;BME280;43816;52.054;-9.494;2023-05-03T00:37:56;101550.25;;;24.59;34.48
57616;BME280;43816;52.054;-9.494;2023-05-03T00:38:07;101543.91;;;24.59;34.35
57616;BME280;43816;52.054;-9.494;2023-05-03T00:38:17;101545.59;;;24.60;34.07
57616;BME280;43816;52.054;-9.494;2023-05-03T00:38:27;101540.31;;;24.58;34.34
57616;BME280;43816;52.054;-9.494;2023-05-03T00:38:38;101530.69;;;24.54;34.14
57616;BME280;43816;52.054;-9.494;2023-05-03T00:38:49;101543.91;;;24.59;34.23
57616;BME280;43816;52.054;-9.494;2023-05-03T00:38:59;101541.78;;;24.61;34.25
57616;BME280;43816;52.054;-9.494;2023-05-03T00:39:09;101535.00;;;24.56;34.38
57616;BME280;43816;52.054;-9.494;2023-05-03T00:39:20;101530.22;;;24.50;34.34
57616;BME280;43816;52.054;-9.494;2023-05-03T00:39:30;101537.94;;;24.55;34.06
57616;BME280;43816;52.054;-9.494;2023-05-03T00:39:41;101534.13;;;24.56;34.25
57616;BME280;43816;52.054;-9.494;2023-05-03T00:39:51;101541.34;;;24.57;34.34
57616;BME280;43816;52.054;-9.494;2023-05-03T00:40:02;101537.94;;;24.55;34.16
57616;BME280;43816;52.054;-9.494;2023-05-03T00:40:12;101535.84;;;24.57;34.43
57616;BME280;43816;52.054;-9.494;2023-05-03T00:40:22;101540.94;;;24.60;34.17
57616;BME280;43816;52.054;-9.494;2023-05-03T00:40:33;101536.50;;;24.59;34.14
57616;BME280;43816;52.054;-9.494;2023-05-03T00:40:43;101535.00;;;24.56;34.12
57616;BME280;43816;52.054;-9.494;2023-05-03T00:40:53;101532.88;;;24.59;34.32
57616;BME280;43816;52.054;-9.494;2023-05-03T00:41:04;101532.25;;;24.56;34.08
57616;BME280;43816;52.054;-9.494;2023-05-03T00:41:15;101532.06;;;24.58;34.34
57616;BME280;43816;52.054;-9.494;2023-05-03T00:41:25;101526.94;;;24.55;34.43
57616;BME280;43816;52.054;-9.494;2023-05-03T00:41:37;101537.56;;;24.58;34.18
57616;BME280;43816;52.054;-9.494;2023-05-03T00:41:47;101524.53;;;24.52;34.26
57616;BME280;43816;52.054;-9.494;2023-05-03T00:41:58;101534.56;;;24.60;34.19
57616;BME280;43816;52.054;-9.494;2023-05-03T00:42:08;101523.47;;;24.53;34.28
57616;BME280;43816;52.054;-9.494;2023-05-03T00:42:19;101529.50;;;24.56;34.49
57616;BME280;43816;52.054;-9.494;2023-05-03T00:42:29;101521.13;;;24.50;34.34
57616;BME280;43816;52.054;-9.494;2023-05-03T00:42:39;101543.06;;;24.58;34.34
57616;BME280;43816;52.054;-9.494;2023-05-03T00:42:49;101525.19;;;24.54;34.25
57616;BME280;43816;52.054;-9.494;2023-05-03T00:43:00;101528.41;;;24.58;34.14
57616;BME280;43816;52.054;-9.494;2023-05-03T00:43:11;101524.34;;;24.53;34.28
57616;BME280;43816;52.054;-9.494;2023-05-03T00:43:21;101523.09;;;24.56;34.33
57616;BME280;43816;52.054;-9.494;2023-05-03T00:43:32;101539.25;;;24.59;34.28
57616;BME280;43816;52.054;-9.494;2023-05-03T00:43:43;101532.44;;;24.55;34.20
57616;BME280;43816;52.054;-9.494;2023-05-03T00:43:53;101532.25;;;24.56;34.28
57616;BME280;43816;52.054;-9.494;2023-05-03T00:44:03;101526.94;;;24.55;34.42
57616;BME280;43816;52.054;-9.494;2023-05-03T00:44:14;101516.66;;;24.49;34.01
57616;BME280;43816;52.054;-9.494;2023-05-03T00:44:24;101537.75;;;24.56;34.17
57616;BME280;43816;52.054;-9.494;2023-05-03T00:44:34;101538.78;;;24.55;34.21
57616;BME280;43816;52.054;-9.494;2023-05-03T00:44:45;101522.63;;;24.52;33.97
57616;BME280;43816;52.054;-9.494;2023-05-03T00:44:55;101505.19;;;24.45;34.19
57616;BME280;43816;52.054;-9.494;2023-05-03T00:45:06;101524.19;;;24.55;34.16
57616;BME280;43816;52.054;-9.494;2023-05-03T00:45:16;101523.28;;;24.54;34.29
57616;BME280;43816;52.054;-9.494;2023-05-03T00:45:29;101526.94;;;24.55;34.38
57616;BME280;43816;52.054;-9.494;2023-05-03T00:45:40;101528.13;;;24.52;34.19
57616;BME280;43816;52.054;-9.494;2023-05-03T00:45:50;101533.28;;;24.55;34.28
57616;BME280;43816;52.054;-9.494;2023-05-03T00:46:02;101531.19;;;24.58;34.23
57616;BME280;43816;52.054;-9.494;2023-05-03T00:46:14;101530.69;;;24.54;34.44
57616;BME280;43816;52.054;-9.494;2023-05-03T00:46:24;101543.44;;;24.55;34.28
57616;BME280;43816;52.054;-9.494;2023-05-03T00:46:35;101536.38;;;24.52;34.57
57616;BME280;43816;52.054;-9.494;2023-05-03T00:46:45;101530.88;;;24.52;34.07
57616;BME280;43816;52.054;-9.494;2023-05-03T00:46:56;101533.44;;;24.54;34.17
57616;BME280;43816;52.054;-9.494;2023-05-03T00:47:07;101528.13;;;24.52;34.15
57616;BME280;43816;52.054;-9.494;2023-05-03T00:47:17;101531.72;;;24.53;34.32
57616;BME280;43816;52.054;-9.494;2023-05-03T00:47:28;101524.19;;;24.55;34.20
57616;BME280;43816;52.054;-9.494;2023-05-03T00:47:38;101541.69;;;24.54;34.26
57616;BME280;43816;52.054;-9.494;2023-05-03T00:47:49;101525.56;;;24.51;34.12
57616;BME280;43816;52.054;-9.494;2023-05-03T00:48:00;101516.28;;;24.52;34.17
57616;BME280;43816;52.054;-9.494;2023-05-03T00:48:11;101532.78;;;24.52;34.18
57616;BME280;43816;52.054;-9.494;2023-05-03T00:48:21;101537.22;;;24.53;34.21
57616;BME280;43816;52.054;-9.494;2023-05-03T00:48:33;101539.63;;;24.56;34.24
57616;BME280;43816;52.054;-9.494;2023-05-03T00:48:45;101535.34;;;24.53;34.17
57616;BME280;43816;52.054;-9.494;2023-05-03T00:48:56;101539.13;;;24.52;34.28
57616;BME280;43816;52.054;-9.494;2023-05-03T00:49:07;101532.78;;;24.52;34.30
57616;BME280;43816;52.054;-9.494;2023-05-03T00:49:17;101537.03;;;24.54;34.34
57616;BME280;43816;52.054;-9.494;2023-05-03T00:49:28;101523.66;;;24.51;34.35
57616;BME280;43816;52.054;-9.494;2023-05-03T00:49:39;101534.13;;;24.56;34.18
57616;BME280;43816;52.054;-9.494;2023-05-03T00:49:50;101533.63;;;24.52;34.27
57616;BME280;43816;52.054;-9.494;2023-05-03T00:50:00;101525.56;;;24.51;34.30
57616;BME280;43816;52.054;-9.494;2023-05-03T00:50:11;101528.97;;;24.53;34.06
57616;BME280;43816;52.054;-9.494;2023-05-03T00:50:21;101532.78;;;24.52;34.20
57616;BME280;43816;52.054;-9.494;2023-05-03T00:50:32;101531.06;;;24.51;34.23
57616;BME280;43816;52.054;-9.494;2023-05-03T00:50:42;101529.16;;;24.51;34.30
57616;BME280;43816;52.054;-9.494;2023-05-03T00:50:52;101526.41;;;24.51;34.23
57616;BME280;43816;52.054;-9.494;2023-05-03T00:51:04;101538.28;;;24.52;34.36
57616;BME280;43816;52.054;-9.494;2023-05-03T00:51:15;101523.88;;;24.50;34.33
57616;BME280;43816;52.054;-9.494;2023-05-03T00:51:28;101528.13;;;24.52;34.20
57616;BME280;43816;52.054;-9.494;2023-05-03T00:51:38;101534.66;;;24.51;34.53
57616;BME280;43816;52.054;-9.494;2023-05-03T00:51:51;101535.53;;;24.52;34.17
57616;BME280;43816;52.054;-9.494;2023-05-03T00:52:02;101534.47;;;24.53;34.21
57616;BME280;43816;52.054;-9.494;2023-05-03T00:52:13;101531.91;;;24.51;34.21
57616;BME280;43816;52.054;-9.494;2023-05-03T00:52:23;101530.22;;;24.50;34.36
57616;BME280;43816;52.054;-9.494;2023-05-03T00:52:33;101523.88;;;24.50;34.06
57616;BME280;43816;52.054;-9.494;2023-05-03T00:52:44;101531.72;;;24.53;33.91
57616;BME280;43816;52.054;-9.494;2023-05-03T00:52:55;101525.56;;;24.51;34.11
57616;BME280;43816;52.054;-9.494;2023-05-03T00:53:05;101523.19;;;24.48;34.15
57616;BME280;43816;52.054;-9.494;2023-05-03T00:53:16;101518.38;;;24.50;34.36
57616;BME280;43816;52.054;-9.494;2023-05-03T00:53:26;101527.66;;;24.49;34.29
57616;BME280;43816;52.054;-9.494;2023-05-03T00:53:38;101518.06;;;24.45;34.34
57616;BME280;43816;52.054;-9.494;2023-05-03T00:53:48;101530.88;;;24.52;34.30
57616;BME280;43816;52.054;-9.494;2023-05-03T00:53:59;101526.81;;;24.48;34.34
57616;BME280;43816;52.054;-9.494;2023-05-03T00:54:10;101531.72;;;24.53;34.16
57616;BME280;43816;52.054;-9.494;2023-05-03T00:54:22;101519.41;;;24.49;34.41
57616;BME280;43816;52.054;-9.494;2023-05-03T00:54:32;101522.16;;;24.49;34.55
57616;BME280;43816;52.054;-9.494;2023-05-03T00:54:43;101518.38;;;24.50;34.42
57616;BME280;43816;52.054;-9.494;2023-05-03T00:54:56;101527.47;;;24.50;34.34